Time;durP1;ratioP1;P1;durP2;ratioP2;P2;SDS_P1;SDS_P2;PMS_P1;PMS_P2;Temp;Humidity;BMP_temperature;BMP_pressure;BME280_temperature;BME280_humidity;BME280_pressure;Samples;Min_cycle;Max_cycle;Signal;HPM_P1;HPM_P2
2020/12/13 00:00:59;;;;;;;17.45;12.77;;;;;;;;;;5092149;28;20035;-57
2020/12/13 00:03:24;;;;;;;17.83;13.02;;;;;;;;;;5093259;28;20024;-56
2020/12/13 00:05:49;;;;;;;20.55;13.48;;;;;;;;;;5093477;28;20024;-58
2020/12/13 00:08:15;;;;;;;20.73;14.52;;;;;;;;;;5090506;28;20076;-55
2020/12/13 00:10:40;;;;;;;19.33;14.27;;;;;;;;;;5092409;28;20127;-57
2020/12/13 00:13:05;;;;;;;18.88;14.27;;;;;;;;;;5091618;28;20137;-58
2020/12/13 00:15:31;;;;;;;21.23;14.15;;;;;;;;;;5087369;28;20107;-55
2020/12/13 00:17:56;;;;;;;22.92;15.07;;;;;;;;;;5086537;28;20012;-57
2020/12/13 00:20:21;;;;;;;17.15;12.15;;;;;;;;;;5090499;28;20008;-57
2020/12/13 00:22:47;;;;;;;19.38;13.30;;;;;;;;;;5091616;28;20043;-58
2020/12/13 00:25:12;;;;;;;18.38;13.05;;;;;;;;;;5093323;28;20473;-59
2020/12/13 00:27:38;;;;;;;15.82;11.27;;;;;;;;;;5091800;28;20098;-55
2020/12/13 00:30:04;;;;;;;14.40;11.02;;;;;;;;;;5087474;28;20020;-56
2020/12/13 00:32:30;;;;;;;14.48;10.73;;;;;;;;;;5092223;28;20030;-56
2020/12/13 00:34:56;;;;;;;14.65;10.55;;;;;;;;;;5091171;28;20020;-58
2020/12/13 00:37:22;;;;;;;12.02;10.02;;;;;;;;;;5091757;28;20019;-54
2020/12/13 00:39:48;;;;;;;13.93;9.98;;;;;;;;;;5088479;28;20020;-57
2020/12/13 00:42:13;;;;;;;11.77;8.98;;;;;;;;;;5092186;28;20012;-56
2020/12/13 00:44:38;;;;;;;10.13;7.85;;;;;;;;;;5091980;28;20062;-56
2020/12/13 00:47:04;;;;;;;9.80;7.97;;;;;;;;;;5090568;28;20386;-59
2020/12/13 00:49:29;;;;;;;11.48;9.13;;;;;;;;;;5088867;28;20019;-58
2020/12/13 00:52:00;;;;;;;10.75;8.13;;;;;;;;;;5091518;28;20474;-58
2020/12/13 00:54:25;;;;;;;9.98;7.80;;;;;;;;;;5092254;28;20016;-58
2020/12/13 00:56:50;;;;;;;11.15;7.45;;;;;;;;;;5092069;28;20142;-56
2020/12/13 00:59:15;;;;;;;9.57;7.43;;;;;;;;;;5088792;28;20414;-58
2020/12/13 01:01:41;;;;;;;10.63;7.90;;;;;;;;;;5090608;28;20028;-58
2020/12/13 01:04:07;;;;;;;12.13;7.90;;;;;;;;;;5087143;28;20034;-56
2020/12/13 01:06:32;;;;;;;9.52;6.78;;;;;;;;;;5087550;28;20024;-56
2020/12/13 01:08:57;;;;;;;9.88;7.60;;;;;;;;;;5088259;28;20073;-57
2020/12/13 01:11:23;;;;;;;9.98;7.32;;;;;;;;;;5086444;28;20024;-56
2020/12/13 01:13:49;;;;;;;10.50;7.32;;;;;;;;;;5092167;28;20386;-54
2020/12/13 01:16:15;;;;;;;12.82;8.18;;;;;;;;;;5088559;28;20013;-56
2020/12/13 01:18:40;;;;;;;9.13;6.95;;;;;;;;;;5086730;28;20032;-57
2020/12/13 01:21:05;;;;;;;8.95;6.97;;;;;;;;;;5089278;28;20034;-56
2020/12/13 01:23:30;;;;;;;9.27;7.50;;;;;;;;;;5091431;28;20040;-56
2020/12/13 01:25:56;;;;;;;8.52;7.35;;;;;;;;;;5091773;28;20028;-56
2020/12/13 01:28:21;;;;;;;8.70;6.63;;;;;;;;;;5088266;28;20020;-57
2020/12/13 01:30:46;;;;;;;9.45;7.20;;;;;;;;;;5090130;28;20035;-56
2020/12/13 01:33:11;;;;;;;8.45;6.13;;;;;;;;;;5091128;28;20429;-56
2020/12/13 01:35:39;;;;;;;9.07;6.25;;;;;;;;;;5091268;28;20072;-57
2020/12/13 01:38:05;;;;;;;8.88;6.22;;;;;;;;;;5089172;28;20027;-57
2020/12/13 01:40:30;;;;;;;9.90;6.30;;;;;;;;;;5088608;28;20023;-56
2020/12/13 01:42:55;;;;;;;8.27;6.47;;;;;;;;;;5082877;28;20031;-56
2020/12/13 01:45:20;;;;;;;7.75;6.25;;;;;;;;;;5091067;28;20028;-56
2020/12/13 01:47:49;;;;;;;7.90;6.20;;;;;;;;;;5090883;28;20024;-58
2020/12/13 01:50:29;;;;;;;8.05;6.07;;;;;;;;;;5085019;28;20091;-57
2020/12/13 01:53:13;;;;;;;7.93;6.38;;;;;;;;;;5089830;28;20034;-55
2020/12/13 01:55:39;;;;;;;7.40;5.60;;;;;;;;;;5093582;28;20023;-58
2020/12/13 01:58:05;;;;;;;7.97;5.28;;;;;;;;;;5088451;28;20355;-58
2020/12/13 02:00:30;;;;;;;6.70;5.38;;;;;;;;;;5089736;28;20059;-58
2020/12/13 02:03:00;;;;;;;8.75;6.35;;;;;;;;;;5092281;28;20036;-58
2020/12/13 02:05:26;;;;;;;7.57;5.95;;;;;;;;;;5095040;28;20020;-56
2020/12/13 02:07:54;;;;;;;8.60;6.53;;;;;;;;;;5095105;28;20074;-57
2020/12/13 02:10:19;;;;;;;8.43;6.55;;;;;;;;;;5090141;28;20534;-57
2020/12/13 02:12:45;;;;;;;8.93;6.60;;;;;;;;;;5092121;28;20025;-56
2020/12/13 02:15:11;;;;;;;8.57;7.05;;;;;;;;;;5089946;28;20028;-54
2020/12/13 02:17:36;;;;;;;7.97;5.90;;;;;;;;;;5092445;28;20043;-58
2020/12/13 02:20:14;;;;;;;9.43;6.65;;;;;;;;;;5088656;28;20081;-58
2020/12/13 02:22:49;;;;;;;10.77;7.03;;;;;;;;;;5093801;28;20040;-58
2020/12/13 02:25:15;;;;;;;8.15;6.53;;;;;;;;;;5095087;28;20028;-55
2020/12/13 02:27:41;;;;;;;7.97;5.72;;;;;;;;;;5089386;28;20031;-56
2020/12/13 02:30:07;;;;;;;9.43;6.70;;;;;;;;;;5091621;28;20466;-57
2020/12/13 02:32:32;;;;;;;7.65;6.25;;;;;;;;;;5091884;28;20477;-57
2020/12/13 02:34:58;;;;;;;8.65;6.53;;;;;;;;;;5093905;28;20045;-56
2020/12/13 02:37:23;;;;;;;10.52;7.00;;;;;;;;;;5093319;28;20482;-56
2020/12/13 02:39:48;;;;;;;8.05;6.35;;;;;;;;;;5091789;28;20061;-54
2020/12/13 02:42:14;;;;;;;8.82;6.32;;;;;;;;;;5093757;28;20023;-54
2020/12/13 02:44:39;;;;;;;8.75;6.18;;;;;;;;;;5093204;28;20073;-57
2020/12/13 02:47:04;;;;;;;7.97;6.72;;;;;;;;;;5094515;28;20509;-54
2020/12/13 02:49:29;;;;;;;8.05;5.93;;;;;;;;;;5091149;28;20030;-55
2020/12/13 02:51:55;;;;;;;8.35;6.72;;;;;;;;;;5094582;28;20020;-56
2020/12/13 02:54:20;;;;;;;8.90;6.60;;;;;;;;;;5095092;28;20020;-56
2020/12/13 02:56:45;;;;;;;7.28;5.85;;;;;;;;;;5092251;28;20340;-55
2020/12/13 02:59:10;;;;;;;9.95;7.20;;;;;;;;;;5089641;28;20008;-56
2020/12/13 03:01:35;;;;;;;8.15;6.80;;;;;;;;;;5091254;28;20471;-57
2020/12/13 03:04:01;;;;;;;9.75;6.50;;;;;;;;;;5091389;28;20024;-57
2020/12/13 03:06:26;;;;;;;10.13;6.90;;;;;;;;;;5094053;28;20028;-56
2020/12/13 03:08:52;;;;;;;8.82;6.50;;;;;;;;;;5090559;28;20023;-57
2020/12/13 03:11:20;;;;;;;8.48;6.93;;;;;;;;;;5093737;28;20020;-56
2020/12/13 03:13:46;;;;;;;8.63;6.82;;;;;;;;;;5093576;28;20055;-55
2020/12/13 03:16:11;;;;;;;8.23;6.00;;;;;;;;;;5091519;28;20008;-53
2020/12/13 03:18:36;;;;;;;6.63;5.55;;;;;;;;;;5091183;28;20091;-55
2020/12/13 03:21:01;;;;;;;9.30;5.88;;;;;;;;;;5091372;28;20020;-56
2020/12/13 03:23:27;;;;;;;7.63;6.40;;;;;;;;;;5093676;28;20043;-56
2020/12/13 03:25:52;;;;;;;7.50;6.03;;;;;;;;;;5088445;28;20020;-56
2020/12/13 03:28:17;;;;;;;7.90;6.53;;;;;;;;;;5090746;28;20662;-57
2020/12/13 03:30:42;;;;;;;7.57;5.97;;;;;;;;;;5093329;28;20019;-56
2020/12/13 03:33:08;;;;;;;7.45;5.75;;;;;;;;;;5089187;28;20077;-55
2020/12/13 03:35:33;;;;;;;7.80;5.78;;;;;;;;;;5087200;28;20008;-58
2020/12/13 03:37:58;;;;;;;7.55;5.85;;;;;;;;;;5086229;28;20070;-56
2020/12/13 03:40:23;;;;;;;7.72;5.63;;;;;;;;;;5091501;28;20012;-54
2020/12/13 03:42:48;;;;;;;10.15;5.47;;;;;;;;;;5088857;28;20020;-56
2020/12/13 03:45:14;;;;;;;8.25;5.90;;;;;;;;;;5088638;28;20055;-55
2020/12/13 03:47:39;;;;;;;10.18;5.93;;;;;;;;;;5093034;28;20532;-58
2020/12/13 03:50:04;;;;;;;8.25;6.18;;;;;;;;;;5084557;28;20031;-59
2020/12/13 03:52:29;;;;;;;7.13;5.93;;;;;;;;;;5091491;28;20099;-56
2020/12/13 03:54:55;;;;;;;7.32;6.05;;;;;;;;;;5079979;28;20024;-55
2020/12/13 03:57:20;;;;;;;8.48;6.25;;;;;;;;;;5091016;28;20489;-54
2020/12/13 03:59:45;;;;;;;7.57;5.57;;;;;;;;;;5087916;28;20021;-57
2020/12/13 04:02:10;;;;;;;8.27;5.78;;;;;;;;;;5090047;28;20027;-57
2020/12/13 04:04:35;;;;;;;9.27;6.00;;;;;;;;;;5086945;28;20047;-56
2020/12/13 04:07:01;;;;;;;6.82;5.30;;;;;;;;;;5092053;28;20024;-57
2020/12/13 04:09:26;;;;;;;7.85;5.57;;;;;;;;;;5089368;28;20024;-57
2020/12/13 04:11:51;;;;;;;9.13;5.60;;;;;;;;;;5091919;28;20020;-56
2020/12/13 04:14:16;;;;;;;8.15;6.13;;;;;;;;;;5091855;28;20020;-58
2020/12/13 04:16:42;;;;;;;6.82;5.38;;;;;;;;;;5092724;28;20417;-57
2020/12/13 04:19:07;;;;;;;7.30;5.55;;;;;;;;;;5089981;28;20012;-57
2020/12/13 04:21:32;;;;;;;7.63;6.15;;;;;;;;;;5091399;28;20520;-55
2020/12/13 04:23:57;;;;;;;10.20;6.82;;;;;;;;;;5091676;28;20131;-54
2020/12/13 04:26:22;;;;;;;8.98;6.43;;;;;;;;;;5091957;28;20126;-53
2020/12/13 04:28:48;;;;;;;6.97;6.07;;;;;;;;;;5082439;28;20111;-54
2020/12/13 04:31:13;;;;;;;8.95;6.85;;;;;;;;;;5085798;28;20016;-56
2020/12/13 04:33:38;;;;;;;7.85;5.85;;;;;;;;;;5092682;28;20036;-56
2020/12/13 04:36:06;;;;;;;9.75;6.78;;;;;;;;;;5092299;28;20028;-57
2020/12/13 04:38:32;;;;;;;7.68;5.90;;;;;;;;;;5088053;28;20016;-54
2020/12/13 04:40:58;;;;;;;8.38;5.93;;;;;;;;;;5091247;28;20022;-56
2020/12/13 04:43:24;;;;;;;6.72;4.82;;;;;;;;;;5092812;28;20093;-58
2020/12/13 04:45:49;;;;;;;7.75;5.90;;;;;;;;;;5089127;28;20020;-55
2020/12/13 04:48:15;;;;;;;8.98;5.45;;;;;;;;;;5089285;28;20589;-58
2020/12/13 04:50:41;;;;;;;6.70;5.25;;;;;;;;;;5091759;28;20494;-56
2020/12/13 04:53:07;;;;;;;9.05;6.55;;;;;;;;;;5092269;28;20024;-55
2020/12/13 04:55:42;;;;;;;6.07;4.38;;;;;;;;;;5091941;28;20111;-54
2020/12/13 04:58:09;;;;;;;8.10;5.63;;;;;;;;;;5089568;28;20478;-57
2020/12/13 05:00:35;;;;;;;8.15;6.20;;;;;;;;;;5089943;28;20093;-57
2020/12/13 05:03:00;;;;;;;9.48;6.35;;;;;;;;;;5089510;28;20469;-55
2020/12/13 05:05:25;;;;;;;8.43;5.90;;;;;;;;;;5087710;28;20020;-55
2020/12/13 05:07:51;;;;;;;8.27;6.03;;;;;;;;;;5088734;28;20022;-56
2020/12/13 05:10:16;;;;;;;7.43;5.90;;;;;;;;;;5088667;28;20042;-55
2020/12/13 05:12:41;;;;;;;8.00;5.20;;;;;;;;;;5088559;28;20065;-55
2020/12/13 05:15:06;;;;;;;7.75;5.65;;;;;;;;;;5089945;28;20024;-57
2020/12/13 05:17:33;;;;;;;7.25;5.63;;;;;;;;;;5091471;28;20073;-58
2020/12/13 05:19:58;;;;;;;8.02;4.88;;;;;;;;;;5080753;28;20026;-55
2020/12/13 05:22:23;;;;;;;7.45;5.25;;;;;;;;;;5091328;28;20463;-56
2020/12/13 05:24:49;;;;;;;8.75;6.50;;;;;;;;;;5091328;28;20074;-56
2020/12/13 05:27:20;;;;;;;8.02;5.30;;;;;;;;;;5090732;28;20534;-56
2020/12/13 05:29:48;;;;;;;8.07;5.82;;;;;;;;;;5083658;28;20146;-56
2020/12/13 05:32:19;;;;;;;7.38;5.75;;;;;;;;;;5091605;28;20077;-57
2020/12/13 05:34:46;;;;;;;8.75;5.75;;;;;;;;;;5083324;28;20024;-58
2020/12/13 05:37:15;;;;;;;10.55;5.65;;;;;;;;;;5092154;28;20617;-55
2020/12/13 05:39:44;;;;;;;7.93;5.95;;;;;;;;;;5095309;28;20014;-56
2020/12/13 05:42:12;;;;;;;7.88;6.05;;;;;;;;;;5098255;28;20012;-56
2020/12/13 05:45:05;;;;;;;8.02;5.80;;;;;;;;;;5094071;28;20462;-57
2020/12/13 05:52:52;;;;;;;7.30;5.35;;;;;;;;;;5097798;28;20419;-54
2020/12/13 05:55:18;;;;;;;7.88;5.68;;;;;;;;;;5094968;28;20069;-56
2020/12/13 05:57:44;;;;;;;8.98;6.13;;;;;;;;;;5097159;28;20103;-55
2020/12/13 06:00:09;;;;;;;7.28;5.45;;;;;;;;;;5095007;28;20158;-57
2020/12/13 06:02:36;;;;;;;8.38;5.82;;;;;;;;;;5098101;28;20057;-57
2020/12/13 06:05:06;;;;;;;8.70;5.80;;;;;;;;;;5094541;28;20020;-58
2020/12/13 06:07:35;;;;;;;7.68;5.85;;;;;;;;;;5097914;28;20402;-57
2020/12/13 06:10:05;;;;;;;7.50;5.75;;;;;;;;;;5092803;28;20031;-57
2020/12/13 06:12:30;;;;;;;7.43;5.25;;;;;;;;;;5094819;28;20039;-57
2020/12/13 06:14:58;;;;;;;8.85;6.50;;;;;;;;;;5089767;28;20067;-57
2020/12/13 06:17:24;;;;;;;8.80;5.50;;;;;;;;;;5087024;28;20039;-56
2020/12/13 06:19:50;;;;;;;7.25;5.53;;;;;;;;;;5087635;28;20509;-55
2020/12/13 06:22:16;;;;;;;8.80;6.10;;;;;;;;;;5096865;28;20164;-57
2020/12/13 06:24:45;;;;;;;6.80;5.20;;;;;;;;;;5097348;28;20027;-56
2020/12/13 06:27:10;;;;;;;8.50;5.47;;;;;;;;;;5097974;28;20489;-57
2020/12/13 06:29:35;;;;;;;6.95;5.45;;;;;;;;;;5094524;28;20019;-58
2020/12/13 06:32:00;;;;;;;7.97;5.47;;;;;;;;;;5096495;28;20072;-57
2020/12/13 06:34:26;;;;;;;7.95;5.72;;;;;;;;;;5089657;28;20111;-56
2020/12/13 06:36:52;;;;;;;8.95;5.72;;;;;;;;;;5097284;28;20020;-54
2020/12/13 06:39:17;;;;;;;7.72;5.57;;;;;;;;;;5093862;28;20028;-58
2020/12/13 06:41:48;;;;;;;8.15;5.80;;;;;;;;;;5098224;28;20024;-55
2020/12/13 06:44:13;;;;;;;7.68;6.07;;;;;;;;;;5096399;28;20024;-54
2020/12/13 06:46:40;;;;;;;8.48;5.55;;;;;;;;;;5096860;28;20069;-57
2020/12/13 06:49:06;;;;;;;8.18;5.70;;;;;;;;;;5089757;28;20024;-52
2020/12/13 06:51:34;;;;;;;7.88;5.70;;;;;;;;;;5093907;28;20027;-57
2020/12/13 06:54:00;;;;;;;8.57;6.00;;;;;;;;;;5091687;28;20726;-57
2020/12/13 06:56:26;;;;;;;8.10;5.55;;;;;;;;;;5094135;28;20032;-57
2020/12/13 06:58:56;;;;;;;8.13;5.35;;;;;;;;;;5087706;28;20485;-58
2020/12/13 07:01:23;;;;;;;7.72;5.65;;;;;;;;;;5087796;28;20020;-57
2020/12/13 07:03:48;;;;;;;7.78;5.72;;;;;;;;;;5093301;28;20102;-56
2020/12/13 07:06:26;;;;;;;9.18;6.57;;;;;;;;;;5093488;28;20082;-56
2020/12/13 07:08:54;;;;;;;8.45;6.03;;;;;;;;;;5092112;28;20076;-57
2020/12/13 07:11:21;;;;;;;8.52;6.00;;;;;;;;;;5094641;28;20462;-58
2020/12/13 07:13:47;;;;;;;8.02;5.45;;;;;;;;;;5092855;28;20031;-57
2020/12/13 07:16:58;;;;;;;9.20;6.00;;;;;;;;;;5090234;28;20020;-57
2020/12/13 07:19:13;;;;;;;10.70;6.03;;;;;;;;;;5081461;28;20390;-57
2020/12/13 07:21:39;;;;;;;7.90;5.47;;;;;;;;;;5088545;28;20378;-56
2020/12/13 07:24:05;;;;;;;8.20;5.95;;;;;;;;;;5091304;28;20048;-57
2020/12/13 07:26:31;;;;;;;7.43;5.65;;;;;;;;;;5093007;28;20122;-55
2020/12/13 07:28:57;;;;;;;8.05;5.88;;;;;;;;;;5091152;28;20423;-55
2020/12/13 07:31:24;;;;;;;9.07;6.35;;;;;;;;;;5093484;28;20016;-54
2020/12/13 07:33:49;;;;;;;9.05;6.68;;;;;;;;;;5091274;28;20028;-58
2020/12/13 07:36:15;;;;;;;11.77;7.35;;;;;;;;;;5092869;28;20020;-58
2020/12/13 07:38:40;;;;;;;8.35;6.18;;;;;;;;;;5091075;28;20020;-56
2020/12/13 07:41:19;;;;;;;8.55;6.05;;;;;;;;;;5092117;28;20396;-56
2020/12/13 07:43:57;;;;;;;9.73;6.18;;;;;;;;;;5092539;28;20036;-55
2020/12/13 07:46:22;;;;;;;8.57;6.22;;;;;;;;;;5090583;28;20059;-57
2020/12/13 07:48:47;;;;;;;8.25;5.93;;;;;;;;;;5079532;28;20059;-57
2020/12/13 07:51:13;;;;;;;7.82;5.63;;;;;;;;;;5093733;28;20050;-57
2020/12/13 07:53:38;;;;;;;7.28;5.47;;;;;;;;;;5091306;28;20538;-56
2020/12/13 07:56:03;;;;;;;8.65;5.72;;;;;;;;;;5093102;28;20016;-59
2020/12/13 07:58:28;;;;;;;8.55;6.40;;;;;;;;;;5090501;28;20020;-55
2020/12/13 08:01:07;;;;;;;8.73;6.47;;;;;;;;;;5092003;28;20434;-57
2020/12/13 08:03:45;;;;;;;10.85;7.10;;;;;;;;;;5091903;28;20089;-56
2020/12/13 08:06:10;;;;;;;9.63;6.95;;;;;;;;;;5090957;28;20027;-56
2020/12/13 08:08:42;;;;;;;9.05;6.43;;;;;;;;;;5086380;28;20629;-57
2020/12/13 08:11:11;;;;;;;8.18;6.10;;;;;;;;;;5100575;28;20031;-58
2020/12/13 08:13:36;;;;;;;8.60;6.72;;;;;;;;;;5090707;28;20078;-57
2020/12/13 08:16:03;;;;;;;9.18;6.82;;;;;;;;;;5089843;28;20016;-57
2020/12/13 08:18:29;;;;;;;8.50;6.70;;;;;;;;;;5087698;28;20352;-58
2020/12/13 08:20:55;;;;;;;9.15;6.97;;;;;;;;;;5088278;28;20404;-57
2020/12/13 08:23:22;;;;;;;9.32;6.30;;;;;;;;;;5092522;28;20552;-58
2020/12/13 08:25:48;;;;;;;10.45;7.72;;;;;;;;;;5089853;28;20356;-57
2020/12/13 08:28:14;;;;;;;9.02;6.70;;;;;;;;;;5087499;28;20021;-55
2020/12/13 08:30:39;;;;;;;9.20;6.53;;;;;;;;;;5092539;28;20484;-57
2020/12/13 08:33:08;;;;;;;9.23;6.50;;;;;;;;;;5092614;28;20044;-57
2020/12/13 08:35:34;;;;;;;9.18;6.78;;;;;;;;;;5090984;28;20020;-56
2020/12/13 08:38:00;;;;;;;9.32;7.20;;;;;;;;;;5090038;28;20058;-58
2020/12/13 08:40:39;;;;;;;11.23;6.93;;;;;;;;;;5088725;28;20020;-58
2020/12/13 08:43:05;;;;;;;10.02;6.93;;;;;;;;;;5092389;28;20031;-55
2020/12/13 08:45:31;;;;;;;10.65;7.63;;;;;;;;;;5091374;28;20016;-57
2020/12/13 08:48:05;;;;;;;10.48;7.68;;;;;;;;;;5091914;28;20008;-58
2020/12/13 08:50:40;;;;;;;11.82;7.57;;;;;;;;;;5089155;28;20012;-58
2020/12/13 08:53:35;;;;;;;10.30;7.93;;;;;;;;;;5083705;28;20575;-57
2020/12/13 08:56:03;;;;;;;10.88;7.85;;;;;;;;;;5062735;28;20077;-57
2020/12/13 08:58:28;;;;;;;11.82;8.32;;;;;;;;;;5078928;28;20015;-57
2020/12/13 09:01:03;;;;;;;11.10;8.32;;;;;;;;;;5084903;28;20028;-56
2020/12/13 09:03:28;;;;;;;10.98;7.90;;;;;;;;;;5089873;28;20448;-55
2020/12/13 09:05:54;;;;;;;11.43;7.60;;;;;;;;;;5090254;28;20036;-58
2020/12/13 09:08:22;;;;;;;11.00;8.25;;;;;;;;;;5087748;28;20020;-57
2020/12/13 09:10:48;;;;;;;9.30;7.25;;;;;;;;;;5089160;28;20490;-55
2020/12/13 09:13:14;;;;;;;10.88;8.32;;;;;;;;;;5091432;28;20361;-57
2020/12/13 09:15:39;;;;;;;9.80;7.35;;;;;;;;;;5090209;28;20016;-57
2020/12/13 09:18:04;;;;;;;10.75;7.78;;;;;;;;;;5087669;28;20027;-58
2020/12/13 09:20:30;;;;;;;10.93;7.68;;;;;;;;;;5087394;28;20004;-58
2020/12/13 09:22:59;;;;;;;9.88;7.65;;;;;;;;;;5086307;28;20040;-57
2020/12/13 09:25:24;;;;;;;9.90;7.43;;;;;;;;;;5086859;28;20016;-57
2020/12/13 09:27:49;;;;;;;9.98;7.40;;;;;;;;;;5091569;28;20524;-55
2020/12/13 09:30:15;;;;;;;10.10;7.95;;;;;;;;;;5078326;28;20032;-57
2020/12/13 09:32:40;;;;;;;9.93;7.25;;;;;;;;;;5089087;28;20053;-57
2020/12/13 09:35:05;;;;;;;9.63;7.70;;;;;;;;;;5085987;28;20048;-57
2020/12/13 09:37:30;;;;;;;9.57;7.05;;;;;;;;;;5084668;28;20106;-57
2020/12/13 09:39:55;;;;;;;9.60;7.15;;;;;;;;;;5078711;28;20410;-58
2020/12/13 09:42:21;;;;;;;7.80;6.57;;;;;;;;;;5087981;28;20466;-56
2020/12/13 09:44:49;;;;;;;8.77;7.03;;;;;;;;;;5087653;28;20032;-59
2020/12/13 09:47:14;;;;;;;10.95;7.60;;;;;;;;;;5084202;28;20046;-58
2020/12/13 09:49:40;;;;;;;9.45;7.28;;;;;;;;;;5081043;28;20020;-57
2020/12/13 09:52:05;;;;;;;8.30;6.85;;;;;;;;;;5090372;28;20032;-57
2020/12/13 09:54:30;;;;;;;9.07;7.75;;;;;;;;;;5089829;28;20344;-58
2020/12/13 09:56:57;;;;;;;10.18;7.63;;;;;;;;;;5090380;28;20024;-57
2020/12/13 09:59:22;;;;;;;8.60;6.90;;;;;;;;;;5088191;28;20525;-54
2020/12/13 10:01:48;;;;;;;9.52;6.97;;;;;;;;;;5086169;28;20044;-57
2020/12/13 10:04:14;;;;;;;7.57;6.35;;;;;;;;;;5084327;28;20034;-57
2020/12/13 10:09:11;;;;;;;9.20;6.82;;;;;;;;;;5073298;28;20028;-56
2020/12/13 10:11:38;;;;;;;11.80;8.18;;;;;;;;;;5088920;28;20028;-56
2020/12/13 10:14:03;;;;;;;9.73;6.53;;;;;;;;;;5081860;28;20025;-58
2020/12/13 10:16:29;;;;;;;9.98;7.03;;;;;;;;;;5087587;28;20020;-56
2020/12/13 10:18:54;;;;;;;10.38;8.15;;;;;;;;;;5088534;28;20020;-56
2020/12/13 10:21:20;;;;;;;12.38;7.65;;;;;;;;;;5090671;28;20024;-56
2020/12/13 10:23:45;;;;;;;10.75;7.93;;;;;;;;;;5092276;28;20139;-57
2020/12/13 10:26:11;;;;;;;11.77;8.65;;;;;;;;;;5095600;28;20064;-58
2020/12/13 10:28:36;;;;;;;11.00;8.48;;;;;;;;;;5092028;28;20027;-56
2020/12/13 10:31:01;;;;;;;10.68;8.18;;;;;;;;;;5095171;28;20023;-58
2020/12/13 10:33:26;;;;;;;9.18;7.30;;;;;;;;;;5092394;28;20069;-57
2020/12/13 10:35:51;;;;;;;11.30;9.02;;;;;;;;;;5095428;28;20297;-59
2020/12/13 10:38:17;;;;;;;10.95;8.18;;;;;;;;;;5088929;28;20155;-57
2020/12/13 10:40:42;;;;;;;12.48;8.05;;;;;;;;;;5093968;28;20012;-58
2020/12/13 10:43:07;;;;;;;10.93;9.65;;;;;;;;;;5095010;28;20103;-57
2020/12/13 10:45:33;;;;;;;9.60;6.95;;;;;;;;;;5093744;28;20024;-57
2020/12/13 10:47:58;;;;;;;9.82;7.15;;;;;;;;;;5094023;28;20035;-54
2020/12/13 10:50:23;;;;;;;9.05;6.90;;;;;;;;;;5092635;28;20520;-59
2020/12/13 10:52:48;;;;;;;10.30;7.90;;;;;;;;;;5088825;28;20024;-54
2020/12/13 10:55:15;;;;;;;11.27;7.38;;;;;;;;;;5094223;28;20082;-55
2020/12/13 10:57:42;;;;;;;11.00;8.38;;;;;;;;;;5093932;28;20062;-57
2020/12/13 11:00:07;;;;;;;10.27;8.18;;;;;;;;;;5091567;28;20027;-56
2020/12/13 11:02:32;;;;;;;12.38;9.07;;;;;;;;;;5093020;28;20017;-56
2020/12/13 11:04:57;;;;;;;11.20;8.52;;;;;;;;;;5094050;28;20028;-55
2020/12/13 11:07:22;;;;;;;11.15;8.23;;;;;;;;;;5094300;28;20492;-57
2020/12/13 11:09:48;;;;;;;12.18;8.73;;;;;;;;;;5090586;28;20539;-57
2020/12/13 11:12:13;;;;;;;12.93;9.95;;;;;;;;;;5094052;28;20024;-56
2020/12/13 11:14:38;;;;;;;13.23;9.45;;;;;;;;;;5098080;28;20043;-58
2020/12/13 11:17:03;;;;;;;12.65;9.73;;;;;;;;;;5094323;28;20502;-58
2020/12/13 11:19:29;;;;;;;11.18;9.10;;;;;;;;;;5091343;28;20012;-58
2020/12/13 11:21:54;;;;;;;14.73;9.38;;;;;;;;;;5094183;28;20024;-55
2020/12/13 11:24:20;;;;;;;14.13;10.35;;;;;;;;;;5094190;28;20043;-57
2020/12/13 11:26:48;;;;;;;13.25;9.98;;;;;;;;;;5093858;28;20094;-58
2020/12/13 11:29:14;;;;;;;13.57;9.73;;;;;;;;;;5090807;28;20497;-56
2020/12/13 11:31:39;;;;;;;12.30;9.38;;;;;;;;;;5080170;28;20024;-58
2020/12/13 11:34:04;;;;;;;12.90;8.23;;;;;;;;;;5093411;28;20489;-57
2020/12/13 11:36:30;;;;;;;13.43;9.82;;;;;;;;;;5093520;28;20091;-58
2020/12/13 11:38:55;;;;;;;13.57;9.35;;;;;;;;;;5090741;28;20024;-57
2020/12/13 11:41:25;;;;;;;13.43;9.73;;;;;;;;;;5086254;28;20019;-58
2020/12/13 11:43:50;;;;;;;13.10;10.50;;;;;;;;;;5093999;28;20048;-57
2020/12/13 11:46:15;;;;;;;14.18;9.98;;;;;;;;;;5089198;28;20048;-56
2020/12/13 11:48:41;;;;;;;13.52;10.32;;;;;;;;;;5091034;28;20103;-58
2020/12/13 11:51:06;;;;;;;12.40;8.93;;;;;;;;;;5092780;28;20023;-56
2020/12/13 11:53:32;;;;;;;13.05;9.18;;;;;;;;;;5093326;28;20027;-57
2020/12/13 11:55:57;;;;;;;13.20;10.40;;;;;;;;;;5093270;28;20061;-57
2020/12/13 11:58:22;;;;;;;15.45;9.88;;;;;;;;;;5090909;28;20016;-57
2020/12/13 12:00:47;;;;;;;13.35;10.32;;;;;;;;;;5093866;28;20355;-57
2020/12/13 12:03:13;;;;;;;12.13;8.35;;;;;;;;;;5080361;28;20024;-57
2020/12/13 12:05:38;;;;;;;12.02;9.32;;;;;;;;;;5093722;28;20039;-55
2020/12/13 12:08:03;;;;;;;13.43;10.82;;;;;;;;;;5092065;28;20031;-58
2020/12/13 12:10:28;;;;;;;13.40;9.95;;;;;;;;;;5091582;28;20065;-56
2020/12/13 12:12:53;;;;;;;12.70;9.10;;;;;;;;;;5093125;28;20494;-57
2020/12/13 12:15:19;;;;;;;12.25;8.20;;;;;;;;;;5090688;28;20043;-57
2020/12/13 12:17:44;;;;;;;12.70;8.23;;;;;;;;;;5092324;28;20020;-58
2020/12/13 12:20:09;;;;;;;12.07;9.15;;;;;;;;;;5090456;28;20023;-58
2020/12/13 12:22:35;;;;;;;13.35;9.63;;;;;;;;;;5093168;28;20446;-56
2020/12/13 12:25:00;;;;;;;12.88;9.02;;;;;;;;;;5093472;28;20445;-56
2020/12/13 12:27:26;;;;;;;11.30;9.13;;;;;;;;;;5086272;28;20104;-58
2020/12/13 12:29:51;;;;;;;12.93;9.60;;;;;;;;;;5089259;28;20134;-58
2020/12/13 12:32:16;;;;;;;12.13;9.13;;;;;;;;;;5092766;28;20466;-58
2020/12/13 12:34:41;;;;;;;12.13;9.73;;;;;;;;;;5092484;28;20059;-56
2020/12/13 12:37:06;;;;;;;11.48;8.60;;;;;;;;;;5091803;28;20016;-58
2020/12/13 12:39:32;;;;;;;9.65;7.13;;;;;;;;;;5089834;28;20020;-58
2020/12/13 12:41:57;;;;;;;13.82;9.30;;;;;;;;;;5092744;28;20474;-58
2020/12/13 12:44:22;;;;;;;12.85;9.30;;;;;;;;;;5093223;28;20073;-59
2020/12/13 12:46:47;;;;;;;11.52;8.82;;;;;;;;;;5092249;28;20387;-58
2020/12/13 12:49:13;;;;;;;12.00;9.02;;;;;;;;;;5089189;28;20012;-57
2020/12/13 12:51:38;;;;;;;11.57;9.93;;;;;;;;;;5093008;28;20031;-58
2020/12/13 12:54:03;;;;;;;12.63;10.35;;;;;;;;;;5092713;28;20363;-58
2020/12/13 12:56:28;;;;;;;12.00;9.30;;;;;;;;;;5092561;28;20012;-59
2020/12/13 12:59:03;;;;;;;11.27;8.25;;;;;;;;;;5088102;28;20024;-58
2020/12/13 13:01:50;;;;;;;12.82;9.57;;;;;;;;;;5092877;28;20024;-58
2020/12/13 13:04:19;;;;;;;13.85;9.63;;;;;;;;;;5087108;28;20319;-58
2020/12/13 13:09:21;;;;;;;9.75;6.95;;;;;;;;;;5088925;28;20248;-58
2020/12/13 13:11:46;;;;;;;14.25;9.32;;;;;;;;;;5092496;28;20028;-59
2020/12/13 13:14:13;;;;;;;13.27;9.73;;;;;;;;;;5100259;28;20024;-58
2020/12/13 13:16:39;;;;;;;11.38;8.32;;;;;;;;;;5092098;28;20101;-58
2020/12/13 13:19:11;;;;;;;12.68;8.77;;;;;;;;;;5074097;28;20562;-58
2020/12/13 13:21:39;;;;;;;11.45;8.80;;;;;;;;;;5090682;28;20047;-56
2020/12/13 13:24:04;;;;;;;12.93;9.35;;;;;;;;;;5092011;28;20048;-57
2020/12/13 13:26:30;;;;;;;15.32;9.27;;;;;;;;;;5092048;28;20020;-57
2020/12/13 13:28:55;;;;;;;12.98;9.73;;;;;;;;;;5088855;28;20355;-58
2020/12/13 13:31:22;;;;;;;12.52;11.00;;;;;;;;;;5091052;28;20371;-58
2020/12/13 13:33:48;;;;;;;13.60;10.20;;;;;;;;;;5091970;28;20498;-57
2020/12/13 13:36:13;;;;;;;12.52;10.02;;;;;;;;;;5092061;28;20130;-57
2020/12/13 13:38:40;;;;;;;13.18;9.32;;;;;;;;;;5088695;28;20107;-57
2020/12/13 13:41:08;;;;;;;13.60;8.77;;;;;;;;;;5092196;28;20103;-57
2020/12/13 13:43:38;;;;;;;13.02;9.52;;;;;;;;;;5091755;28;20012;-58
2020/12/13 13:46:26;;;;;;;13.38;9.20;;;;;;;;;;5090772;28;20012;-57
2020/12/13 13:51:32;;;;;;;15.77;10.07;;;;;;;;;;5091613;28;20061;-56
2020/12/13 13:53:58;;;;;;;12.82;9.30;;;;;;;;;;5090776;28;20070;-54
2020/12/13 13:56:29;;;;;;;13.15;9.00;;;;;;;;;;5091980;28;20471;-58
2020/12/13 13:58:56;;;;;;;12.43;9.23;;;;;;;;;;5084188;28;20043;-57
2020/12/13 14:01:21;;;;;;;12.25;9.35;;;;;;;;;;5096564;28;20378;-57
2020/12/13 14:03:46;;;;;;;11.90;8.93;;;;;;;;;;5095704;28;20024;-56
2020/12/13 14:06:18;;;;;;;11.40;9.15;;;;;;;;;;5096215;28;20020;-55
2020/12/13 14:08:43;;;;;;;12.55;9.95;;;;;;;;;;5086994;28;20059;-58
2020/12/13 14:11:10;;;;;;;12.48;9.07;;;;;;;;;;5087290;28;20059;-58
2020/12/13 14:13:35;;;;;;;12.75;10.60;;;;;;;;;;5093953;28;20024;-55
2020/12/13 14:16:01;;;;;;;14.68;11.10;;;;;;;;;;5090946;28;20026;-58
2020/12/13 14:18:26;;;;;;;12.57;10.40;;;;;;;;;;5092712;28;20456;-58
2020/12/13 14:20:52;;;;;;;13.85;10.45;;;;;;;;;;5095688;28;20023;-57
2020/12/13 14:23:17;;;;;;;15.02;9.60;;;;;;;;;;5095108;28;20526;-57
2020/12/13 14:25:43;;;;;;;13.60;9.38;;;;;;;;;;5095610;28;20028;-57
2020/12/13 14:28:08;;;;;;;12.05;9.40;;;;;;;;;;5081298;28;20070;-59
2020/12/13 14:30:33;;;;;;;13.73;9.63;;;;;;;;;;5092352;28;20570;-58
2020/12/13 14:32:59;;;;;;;14.57;10.30;;;;;;;;;;5094912;28;20471;-56
2020/12/13 14:35:24;;;;;;;11.90;9.73;;;;;;;;;;5094910;28;20024;-58
2020/12/13 14:37:49;;;;;;;16.45;10.05;;;;;;;;;;5092094;28;20016;-57
2020/12/13 14:40:15;;;;;;;13.70;10.02;;;;;;;;;;5090925;28;20024;-58
2020/12/13 14:42:40;;;;;;;13.77;10.05;;;;;;;;;;5095893;28;20016;-58
2020/12/13 14:45:06;;;;;;;12.05;9.63;;;;;;;;;;5095161;28;20035;-55